createdAt,value
2018-07-08T00:00:55.837Z,3.33
2018-07-08T00:01:59.557Z,3.30
2018-07-08T00:03:03.245Z,3.35
2018-07-08T00:04:06.897Z,3.00
2018-07-08T00:05:10.564Z,3.55
2018-07-08T00:06:14.270Z,3.25
2018-07-08T00:07:17.976Z,3.00
2018-07-08T00:08:21.640Z,3.33
2018-07-08T00:09:25.345Z,3.35
2018-07-08T00:10:29.030Z,3.35
2018-07-08T00:11:32.644Z,3.05
2018-07-08T00:12:36.315Z,3.30
2018-07-08T00:13:39.955Z,2.92
2018-07-08T00:14:43.495Z,2.98
2018-07-08T00:15:47.199Z,2.87
2018-07-08T00:16:50.782Z,3.62
2018-07-08T00:17:54.456Z,3.35
2018-07-08T00:18:58.096Z,3.08
2018-07-08T00:20:01.798Z,3.22
2018-07-08T00:21:05.115Z,3.00
2018-07-08T00:22:08.732Z,3.10
2018-07-08T00:23:12.453Z,3.55
2018-07-08T00:24:16.200Z,3.25
2018-07-08T00:25:19.784Z,3.70
2018-07-08T00:26:23.465Z,3.08
2018-07-08T00:27:27.074Z,2.72
2018-07-08T00:28:30.781Z,3.40
2018-07-08T00:29:34.395Z,2.80
2018-07-08T00:30:38.214Z,2.95
2018-07-08T00:31:41.879Z,2.95
2018-07-08T00:32:45.492Z,3.05
2018-07-08T00:33:49.341Z,2.55
2018-07-08T00:34:53.058Z,2.80
2018-07-08T00:35:56.700Z,2.95
2018-07-08T00:37:00.384Z,2.40
2018-07-08T00:38:04.130Z,2.65
2018-07-08T00:39:08.379Z,2.87
2018-07-08T00:40:12.048Z,2.30
2018-07-08T00:41:15.675Z,3.10
2018-07-08T00:42:18.995Z,2.65
2018-07-08T00:43:22.652Z,2.30
2018-07-08T00:44:26.356Z,2.80
2018-07-08T00:45:30.007Z,2.42
2018-07-08T00:46:33.621Z,2.42
2018-07-08T00:47:37.242Z,2.98
2018-07-08T00:48:40.900Z,2.92
2018-07-08T00:49:44.334Z,2.60
2018-07-08T00:50:47.969Z,3.00
2018-07-08T00:51:51.760Z,2.58
2018-07-08T00:52:55.075Z,3.15
2018-07-08T00:53:58.756Z,2.70
2018-07-08T00:55:02.455Z,3.08
2018-07-08T00:56:05.763Z,3.15
2018-07-08T00:57:09.460Z,3.25
2018-07-08T00:58:13.116Z,2.75
2018-07-08T00:59:16.374Z,2.80
2018-07-08T01:00:38.746Z,2.80
2018-07-08T01:01:42.437Z,2.60
2018-07-08T01:02:45.989Z,2.72
2018-07-08T01:03:49.650Z,2.95
2018-07-08T01:04:53.311Z,2.52
2018-07-08T01:05:56.980Z,2.75
2018-07-08T01:07:00.677Z,2.77
2018-07-08T01:08:04.705Z,3.02
2018-07-08T01:09:08.467Z,3.08
2018-07-08T01:10:11.843Z,3.30
2018-07-08T01:11:15.487Z,3.20
2018-07-08T01:12:19.189Z,2.75
2018-07-08T01:13:22.882Z,3.20
2018-07-08T01:14:26.555Z,3.22
2018-07-08T01:15:30.221Z,3.05
2018-07-08T01:16:33.861Z,3.27
2018-07-08T01:17:37.587Z,3.10
2018-07-08T01:18:41.215Z,2.65
2018-07-08T01:19:44.917Z,2.80
2018-07-08T01:20:48.564Z,2.95
2018-07-08T01:21:52.286Z,2.72
2018-07-08T01:22:55.944Z,2.60
2018-07-08T01:23:59.624Z,2.55
2018-07-08T01:25:11.235Z,2.70
2018-07-08T01:26:14.953Z,2.60
2018-07-08T01:27:18.572Z,3.40
2018-07-08T01:28:22.297Z,2.45
2018-07-08T01:29:25.927Z,2.45
2018-07-08T01:30:29.553Z,3.12
2018-07-08T01:31:33.247Z,3.05
2018-07-08T01:32:36.948Z,2.40
2018-07-08T01:33:40.845Z,2.45
2018-07-08T01:34:44.482Z,2.67
2018-07-08T01:35:47.779Z,2.85
2018-07-08T01:36:51.435Z,2.67
2018-07-08T01:37:55.078Z,2.60
2018-07-08T01:38:58.769Z,2.90
2018-07-08T01:40:02.449Z,3.00
2018-07-08T01:41:06.303Z,2.77
2018-07-08T01:42:10.035Z,2.90
2018-07-08T01:43:13.685Z,3.02
2018-07-08T01:44:17.381Z,3.55
2018-07-08T01:45:20.720Z,2.60
2018-07-08T01:46:23.979Z,2.90
2018-07-08T01:47:27.841Z,2.80
2018-07-08T01:48:31.521Z,2.45
2018-07-08T01:49:35.163Z,2.55
2018-07-08T01:50:38.417Z,2.47
2018-07-08T01:51:42.086Z,2.58
2018-07-08T01:52:45.694Z,3.17
2018-07-08T01:53:49.373Z,2.35
2018-07-08T01:54:53.573Z,2.77
2018-07-08T01:55:57.221Z,2.10
2018-07-08T01:57:00.989Z,2.67
2018-07-08T01:58:04.633Z,2.37
2018-07-08T01:59:08.354Z,2.17
2018-07-08T02:00:11.996Z,2.40
2018-07-08T02:01:15.659Z,2.30
2018-07-08T02:02:19.432Z,2.60
2018-07-08T02:03:23.162Z,2.72
2018-07-08T02:04:26.835Z,2.33
2018-07-08T02:05:30.564Z,2.10
2018-07-08T02:06:33.908Z,2.30
2018-07-08T02:07:37.576Z,2.40
2018-07-08T02:08:41.273Z,2.08
2018-07-08T02:09:45.195Z,2.25
2018-07-08T02:10:48.981Z,2.40
2018-07-08T02:11:52.790Z,2.65
2018-07-08T02:12:56.428Z,2.33
2018-07-08T02:14:00.082Z,2.25
2018-07-08T02:15:03.800Z,2.77
2018-07-08T02:16:07.421Z,2.67
2018-07-08T02:17:11.493Z,2.75
2018-07-08T02:18:15.106Z,2.30
2018-07-08T02:19:18.374Z,2.00
2018-07-08T02:20:21.664Z,2.50
2018-07-08T02:21:25.345Z,2.47
2018-07-08T02:22:29.028Z,2.67
2018-07-08T02:23:32.683Z,2.33
2018-07-08T02:24:36.294Z,2.60
2018-07-08T02:25:39.963Z,2.08
2018-07-08T02:26:44.090Z,2.40
2018-07-08T02:27:47.769Z,2.70
2018-07-08T02:28:51.644Z,2.20
2018-07-08T02:29:55.460Z,3.00
2018-07-08T02:30:59.145Z,2.77
2018-07-08T02:32:02.957Z,2.62
2018-07-08T02:33:06.645Z,2.33
2018-07-08T02:34:10.274Z,2.45
2018-07-08T02:35:13.970Z,1.90
2018-07-08T02:36:17.666Z,2.20
2018-07-08T02:37:21.037Z,2.50
2018-07-08T02:38:24.356Z,2.30
2018-07-08T02:39:28.133Z,2.90
2018-07-08T02:40:31.779Z,2.50
2018-07-08T02:41:35.472Z,3.25
2018-07-08T02:42:39.192Z,2.75
2018-07-08T02:43:42.895Z,2.80
2018-07-08T02:44:46.569Z,2.02
2018-07-08T02:45:50.445Z,2.20
2018-07-08T02:46:54.582Z,2.65
2018-07-08T02:47:58.452Z,2.80
2018-07-08T02:49:02.274Z,2.62
2018-07-08T02:50:05.914Z,2.27
2018-07-08T02:51:09.573Z,2.33
2018-07-08T02:52:12.855Z,2.90
2018-07-08T02:53:16.571Z,2.62
2018-07-08T02:54:20.315Z,2.35
2018-07-08T02:55:23.963Z,2.52
2018-07-08T02:56:27.619Z,2.75
2018-07-08T02:57:31.223Z,2.37
2018-07-08T02:58:34.851Z,2.25
2018-07-08T02:59:38.484Z,2.33
2018-07-08T03:00:42.106Z,2.50
2018-07-08T03:01:45.736Z,2.37
2018-07-08T03:02:49.395Z,2.58
2018-07-08T03:03:53.104Z,2.58
2018-07-08T03:04:56.726Z,2.20
2018-07-08T03:06:00.455Z,2.42
2018-07-08T03:07:04.172Z,2.60
2018-07-08T03:08:07.854Z,2.27
2018-07-08T03:09:11.162Z,2.50
2018-07-08T03:10:14.808Z,3.27
2018-07-08T03:11:18.821Z,2.05
2018-07-08T03:12:22.173Z,2.60
2018-07-08T03:13:25.825Z,2.40
2018-07-08T03:14:29.454Z,2.22
2018-07-08T03:15:33.019Z,2.35
2018-07-08T03:16:36.683Z,2.40
2018-07-08T03:17:40.011Z,2.52
2018-07-08T03:18:43.685Z,2.45
2018-07-08T03:19:47.266Z,2.55
2018-07-08T03:20:50.897Z,2.10
2018-07-08T03:21:54.908Z,2.20
2018-07-08T03:22:58.515Z,3.10
2018-07-08T03:24:02.261Z,2.45
2018-07-08T03:25:05.856Z,2.22
2018-07-08T03:26:09.447Z,2.50
2018-07-08T03:27:13.092Z,2.70
2018-07-08T03:28:16.431Z,2.30
2018-07-08T03:29:20.073Z,2.67
2018-07-08T03:30:23.680Z,2.70
2018-07-08T03:31:27.366Z,2.67
2018-07-08T03:32:30.985Z,2.37
2018-07-08T03:33:34.641Z,2.37
2018-07-08T03:34:38.267Z,2.80
2018-07-08T03:35:41.876Z,2.42
2018-07-08T03:36:45.460Z,2.37
2018-07-08T03:37:49.071Z,2.62
2018-07-08T03:38:52.770Z,2.70
2018-07-08T03:39:56.580Z,2.77
2018-07-08T03:41:00.196Z,2.25
2018-07-08T03:42:03.454Z,2.80
2018-07-08T03:43:07.012Z,2.70
2018-07-08T03:44:10.630Z,2.60
2018-07-08T03:45:14.237Z,2.30
2018-07-08T03:46:17.864Z,2.77
2018-07-08T03:47:21.469Z,2.20
2018-07-08T03:48:25.153Z,3.70
2018-07-08T03:49:28.782Z,2.40
2018-07-08T03:50:32.409Z,3.10
2018-07-08T03:51:35.759Z,2.40
2018-07-08T03:52:39.385Z,2.65
2018-07-08T03:53:43.054Z,3.00
2018-07-08T03:54:46.648Z,3.25
2018-07-08T03:55:50.275Z,2.95
2018-07-08T03:56:53.929Z,2.12
2018-07-08T03:57:57.253Z,2.17
2018-07-08T03:59:00.862Z,2.77
2018-07-08T04:00:04.492Z,2.50
2018-07-08T04:01:08.116Z,2.33
2018-07-08T04:02:11.399Z,2.83
2018-07-08T04:03:15.009Z,2.90
2018-07-08T04:04:18.908Z,2.50
2018-07-08T04:05:22.527Z,2.80
2018-07-08T04:06:26.196Z,2.72
2018-07-08T04:07:29.829Z,2.70
2018-07-08T04:08:33.504Z,2.90
2018-07-08T04:09:37.147Z,2.72
2018-07-08T04:10:40.801Z,2.42
2018-07-08T04:11:44.441Z,3.05
2018-07-08T04:12:47.668Z,2.70
2018-07-08T04:13:51.256Z,2.45
2018-07-08T04:14:54.900Z,2.50
2018-07-08T04:15:58.817Z,2.67
2018-07-08T04:17:02.407Z,2.55
2018-07-08T04:18:09.563Z,2.77
2018-07-08T04:19:13.268Z,2.50
2018-07-08T04:20:16.880Z,2.55
2018-07-08T04:21:20.508Z,2.85
2018-07-08T04:22:24.156Z,2.55
2018-07-08T04:23:27.874Z,2.72
2018-07-08T04:24:31.511Z,2.60
2018-07-08T04:25:35.197Z,3.02
2018-07-08T04:26:38.918Z,2.67
2018-07-08T04:27:42.489Z,2.95
2018-07-08T04:28:45.796Z,3.05
2018-07-08T04:29:49.436Z,2.65
2018-07-08T04:30:53.074Z,2.30
2018-07-08T04:31:56.734Z,2.92
2018-07-08T04:33:00.861Z,2.80
2018-07-08T04:34:04.590Z,2.52
2018-07-08T04:35:08.227Z,2.87
2018-07-08T04:36:11.887Z,2.60
2018-07-08T04:37:15.574Z,2.65
2018-07-08T04:38:19.214Z,2.40
2018-07-08T04:39:22.835Z,3.05
2018-07-08T04:40:26.498Z,2.40
2018-07-08T04:41:30.218Z,2.47
2018-07-08T04:42:33.854Z,2.60
2018-07-08T04:43:37.522Z,2.55
2018-07-08T04:44:41.160Z,2.70
2018-07-08T04:45:44.795Z,2.50
2018-07-08T04:46:48.463Z,2.87
2018-07-08T04:47:52.113Z,2.58
2018-07-08T04:48:55.756Z,3.10
2018-07-08T04:49:59.638Z,2.65
2018-07-08T04:51:02.908Z,3.35
2018-07-08T04:52:06.672Z,3.10
2018-07-08T04:53:10.308Z,2.62
2018-07-08T04:54:13.942Z,2.60
2018-07-08T04:55:17.601Z,2.30
2018-07-08T04:56:21.247Z,3.08
2018-07-08T04:57:24.870Z,2.27
2018-07-08T04:58:28.547Z,3.17
2018-07-08T04:59:32.239Z,3.10
2018-07-08T05:00:35.933Z,3.77
2018-07-08T05:01:39.563Z,2.95
2018-07-08T05:02:43.259Z,3.05
2018-07-08T05:03:46.926Z,2.87
2018-07-08T05:04:50.611Z,3.55
2018-07-08T05:05:54.285Z,3.70
2018-07-08T05:06:58.005Z,2.67
2018-07-08T05:08:01.729Z,3.00
2018-07-08T05:09:05.893Z,3.05
2018-07-08T05:10:09.660Z,3.20
2018-07-08T05:11:13.321Z,3.50
2018-07-08T05:12:16.957Z,4.05
2018-07-08T05:13:20.686Z,3.17
2018-07-08T05:14:24.360Z,4.30
2018-07-08T05:15:28.003Z,3.55
2018-07-08T05:16:31.704Z,3.20
2018-07-08T05:17:35.424Z,3.10
2018-07-08T05:18:39.059Z,3.35
2018-07-08T05:19:42.997Z,2.90
2018-07-08T05:20:46.663Z,3.35
2018-07-08T05:21:50.462Z,3.52
2018-07-08T05:22:54.071Z,3.47
2018-07-08T05:23:57.783Z,3.80
2018-07-08T05:25:01.416Z,3.17
2018-07-08T05:26:04.844Z,3.12
2018-07-08T05:27:08.544Z,3.60
2018-07-08T05:28:12.443Z,3.10
2018-07-08T05:29:16.170Z,3.67
2018-07-08T05:30:19.848Z,3.62
2018-07-08T05:31:23.501Z,3.65
2018-07-08T05:32:27.201Z,3.12
2018-07-08T05:33:30.864Z,3.95
2018-07-08T05:34:34.562Z,3.90
2018-07-08T05:35:38.305Z,3.47
2018-07-08T05:36:42.036Z,3.62
2018-07-08T05:37:45.722Z,3.52
2018-07-08T05:38:49.400Z,3.50
2018-07-08T05:39:53.227Z,4.60
2018-07-08T05:40:56.919Z,3.72
2018-07-08T05:42:00.606Z,3.20
2018-07-08T05:43:04.290Z,3.40
2018-07-08T05:44:08.224Z,3.17
2018-07-08T05:45:11.730Z,3.30
2018-07-08T05:46:15.604Z,3.20
2018-07-08T05:47:19.540Z,3.27
2018-07-08T05:48:23.327Z,3.65
2018-07-08T05:49:27.212Z,3.05
2018-07-08T05:50:30.962Z,3.70
2018-07-08T05:51:34.753Z,2.52
2018-07-08T05:52:38.443Z,2.90
2018-07-08T05:53:42.050Z,3.10
2018-07-08T05:54:45.770Z,3.30
2018-07-08T05:55:49.452Z,3.52
2018-07-08T05:56:53.127Z,3.22
2018-07-08T05:57:56.788Z,3.17
2018-07-08T05:59:00.428Z,2.47
2018-07-08T06:00:03.977Z,2.58
2018-07-08T06:01:08.221Z,2.20
2018-07-08T06:02:11.985Z,2.70
2018-07-08T06:03:15.665Z,2.92
2018-07-08T06:04:19.284Z,2.50
2018-07-08T06:05:23.018Z,3.20
2018-07-08T06:06:26.749Z,2.98
2018-07-08T06:07:30.442Z,2.35
2018-07-08T06:08:34.146Z,2.95
2018-07-08T06:09:37.779Z,3.00
2018-07-08T06:10:41.500Z,2.87
2018-07-08T06:11:45.109Z,2.95
2018-07-08T06:12:48.873Z,2.83
2018-07-08T06:13:53.110Z,2.92
2018-07-08T06:14:56.738Z,3.10
2018-07-08T06:16:00.345Z,3.75
2018-07-08T06:17:03.991Z,2.75
2018-07-08T06:18:07.770Z,3.15
2018-07-08T06:19:11.377Z,2.72
2018-07-08T06:20:15.239Z,3.27
2018-07-08T06:21:18.901Z,3.25
2018-07-08T06:22:22.513Z,2.58
2018-07-08T06:23:26.189Z,3.10
2018-07-08T06:24:29.941Z,2.90
2018-07-08T06:25:33.681Z,2.70
2018-07-08T06:26:37.373Z,2.42
2018-07-08T06:27:41.050Z,2.60
2018-07-08T06:28:44.717Z,3.70
2018-07-08T06:29:48.400Z,2.67
2018-07-08T06:30:52.092Z,2.83
2018-07-08T06:31:55.727Z,2.50
2018-07-08T06:32:59.397Z,2.55
2018-07-08T06:34:03.044Z,3.05
2018-07-08T06:35:06.757Z,3.00
2018-07-08T06:36:10.423Z,2.70
2018-07-08T06:37:14.066Z,2.33
2018-07-08T06:38:17.717Z,2.62
2018-07-08T06:39:21.410Z,2.90
2018-07-08T06:40:25.074Z,2.87
2018-07-08T06:41:28.842Z,2.40
2018-07-08T06:42:32.504Z,2.85
2018-07-08T06:43:36.758Z,2.70
2018-07-08T06:44:40.378Z,2.55
2018-07-08T06:45:44.035Z,3.02
2018-07-08T06:46:47.425Z,2.72
2018-07-08T06:47:51.073Z,2.33
2018-07-08T06:48:54.765Z,2.50
2018-07-08T06:49:58.386Z,3.08
2018-07-08T06:51:02.052Z,2.80
2018-07-08T06:52:05.862Z,2.65
2018-07-08T06:53:09.496Z,2.87
2018-07-08T06:54:13.199Z,2.45
2018-07-08T06:55:16.856Z,2.80
2018-07-08T06:56:20.500Z,3.08
2018-07-08T06:57:24.212Z,3.00
2018-07-08T06:58:27.888Z,2.65
2018-07-08T06:59:31.612Z,2.72
2018-07-08T07:00:35.243Z,2.70
2018-07-08T07:01:38.850Z,2.83
2018-07-08T07:02:42.479Z,2.45
2018-07-08T07:03:46.124Z,3.00
2018-07-08T07:04:49.817Z,2.62
2018-07-08T07:05:53.435Z,2.47
2018-07-08T07:06:57.238Z,2.87
2018-07-08T07:08:00.930Z,2.75
2018-07-08T07:09:06.244Z,3.75
2018-07-08T07:10:10.080Z,3.55
2018-07-08T07:11:13.755Z,3.50
2018-07-08T07:12:17.591Z,3.35
2018-07-08T07:13:21.253Z,2.90
2018-07-08T07:14:24.944Z,3.30
2018-07-08T07:15:28.593Z,3.33
2018-07-08T07:16:32.272Z,3.75
2018-07-08T07:17:36.020Z,3.27
2018-07-08T07:18:39.695Z,3.42
2018-07-08T07:19:43.380Z,3.15
2018-07-08T07:20:47.223Z,3.50
2018-07-08T07:21:51.038Z,3.20
2018-07-08T07:22:54.741Z,2.90
2018-07-08T07:23:58.377Z,2.70
2018-07-08T07:25:02.007Z,2.87
2018-07-08T07:26:05.837Z,2.85
2018-07-08T07:27:09.457Z,2.92
2018-07-08T07:28:13.110Z,3.05
2018-07-08T07:29:16.752Z,2.77
2018-07-08T07:30:20.368Z,3.00
2018-07-08T07:31:24.044Z,3.02
2018-07-08T07:32:27.677Z,3.33
2018-07-08T07:33:31.390Z,3.33
2018-07-08T07:34:35.147Z,3.12
2018-07-08T07:35:38.800Z,2.70
2018-07-08T07:36:42.460Z,3.40
2018-07-08T07:37:46.177Z,2.62
2018-07-08T07:38:49.786Z,2.60
2018-07-08T07:39:53.443Z,3.35
2018-07-08T07:40:57.091Z,2.62
2018-07-08T07:42:00.734Z,2.80
2018-07-08T07:43:04.381Z,2.60
2018-07-08T07:44:08.367Z,2.87
2018-07-08T07:45:12.009Z,3.02
2018-07-08T07:46:15.685Z,2.35
2018-07-08T07:47:19.370Z,3.10
2018-07-08T07:48:23.068Z,2.80
2018-07-08T07:49:26.698Z,2.83
2018-07-08T07:50:30.510Z,3.20
2018-07-08T07:51:34.138Z,3.00
2018-07-08T07:52:37.801Z,3.27
2018-07-08T07:53:41.563Z,2.80
2018-07-08T07:54:45.169Z,3.37
2018-07-08T07:55:48.820Z,2.77
2018-07-08T07:56:52.539Z,2.62
2018-07-08T07:57:56.313Z,3.08
2018-07-08T07:59:00.012Z,3.00
2018-07-08T08:00:03.760Z,2.90
2018-07-08T08:01:07.670Z,2.72
2018-07-08T08:02:11.648Z,2.80
2018-07-08T08:03:15.342Z,2.50
2018-07-08T08:04:19.032Z,3.12
2018-07-08T08:05:22.727Z,2.70
2018-07-08T08:06:26.433Z,3.22
2018-07-08T08:07:30.141Z,2.52
2018-07-08T08:08:33.929Z,2.50
2018-07-08T08:09:37.620Z,2.80
2018-07-08T08:10:41.313Z,2.52
2018-07-08T08:11:44.992Z,2.40
2018-07-08T08:12:48.642Z,2.30
2018-07-08T08:14:01.290Z,3.25
2018-07-08T08:15:05.200Z,2.30
2018-07-08T08:16:08.910Z,2.70
2018-07-08T08:17:12.662Z,2.45
2018-07-08T08:18:16.380Z,2.65
2018-07-08T08:19:20.212Z,2.42
2018-07-08T08:20:24.088Z,2.70
2018-07-08T08:21:27.685Z,2.58
2018-07-08T08:22:31.353Z,2.27
2018-07-08T08:23:35.063Z,2.60
2018-07-08T08:24:38.680Z,2.15
2018-07-08T08:25:42.306Z,2.30
2018-07-08T08:26:46.026Z,2.42
2018-07-08T08:27:49.674Z,1.92
2018-07-08T08:28:53.653Z,2.05
2018-07-08T08:29:57.365Z,2.45
2018-07-08T08:31:01.032Z,2.37
2018-07-08T08:32:04.725Z,2.30
2018-07-08T08:33:08.465Z,2.85
2018-07-08T08:35:15.815Z,2.70
2018-07-08T08:36:19.465Z,2.40
2018-07-08T08:37:25.366Z,2.83
2018-07-08T08:38:29.023Z,2.22
2018-07-08T08:39:32.677Z,2.50
2018-07-08T08:40:36.417Z,2.30
2018-07-08T08:41:40.074Z,2.15
2018-07-08T08:42:43.730Z,2.58
2018-07-08T08:43:47.471Z,2.15
2018-07-08T08:44:51.762Z,2.30
2018-07-08T08:45:55.476Z,2.55
2018-07-08T08:46:59.160Z,2.55
2018-07-08T08:48:02.854Z,2.10
2018-07-08T08:49:06.487Z,2.05
2018-07-08T08:50:10.990Z,2.27
2018-07-08T08:51:14.568Z,2.50
2018-07-08T08:52:18.434Z,3.08
2018-07-08T08:53:22.092Z,2.50
2018-07-08T08:54:25.838Z,2.83
2018-07-08T08:55:29.527Z,2.20
2018-07-08T08:56:33.160Z,2.67
2018-07-08T08:57:36.495Z,2.95
2018-07-08T08:58:40.133Z,1.98
2018-07-08T08:59:43.814Z,2.10
2018-07-08T09:00:47.491Z,2.50
2018-07-08T09:01:51.301Z,2.08
2018-07-08T09:02:54.969Z,2.20
2018-07-08T09:03:58.659Z,3.08
2018-07-08T09:05:02.345Z,2.65
2018-07-08T09:06:06.087Z,2.72
2018-07-08T09:07:10.984Z,2.70
2018-07-08T09:08:14.789Z,2.70
2018-07-08T09:09:18.472Z,2.30
2018-07-08T09:10:21.865Z,2.22
2018-07-08T09:11:25.518Z,2.30
2018-07-08T09:12:29.106Z,2.10
2018-07-08T09:13:32.722Z,2.40
2018-07-08T09:14:36.619Z,1.98
2018-07-08T09:15:40.310Z,2.30
2018-07-08T09:16:43.949Z,1.82
2018-07-08T09:17:47.672Z,2.05
2018-07-08T09:18:51.388Z,2.02
2018-07-08T09:19:55.106Z,2.08
2018-07-08T09:20:58.370Z,2.15
2018-07-08T09:22:02.025Z,2.50
2018-07-08T09:23:05.724Z,1.93
2018-07-08T09:24:09.493Z,2.20
2018-07-08T09:25:13.186Z,1.50
2018-07-08T09:26:16.441Z,2.07
2018-07-08T09:27:20.140Z,2.07
2018-07-08T09:28:23.831Z,1.80
2018-07-08T09:29:27.475Z,1.73
2018-07-08T09:30:31.116Z,2.10
2018-07-08T09:31:34.781Z,2.00
2018-07-08T09:32:38.461Z,2.20
2018-07-08T09:33:42.126Z,2.30
2018-07-08T09:34:45.743Z,1.90
2018-07-08T09:35:49.374Z,2.10
2018-07-08T09:36:53.141Z,2.17
2018-07-08T09:37:56.881Z,2.47
2018-07-08T09:39:00.687Z,2.23
2018-07-08T09:40:04.285Z,1.93
2018-07-08T09:41:07.932Z,1.90
2018-07-08T09:42:11.582Z,2.00
2018-07-08T09:43:15.275Z,2.63
2018-07-08T09:44:19.349Z,2.37
2018-07-08T09:45:22.993Z,2.27
2018-07-08T09:46:26.706Z,2.00
2018-07-08T09:47:30.372Z,2.03
2018-07-08T09:48:34.055Z,2.10
2018-07-08T09:49:37.708Z,1.77
2018-07-08T09:50:41.023Z,1.83
2018-07-08T09:51:45.002Z,1.70
2018-07-08T09:52:48.640Z,2.20
2018-07-08T09:53:52.350Z,2.07
2018-07-08T09:54:56.015Z,2.40
2018-07-08T09:55:59.642Z,2.23
2018-07-08T09:57:03.257Z,2.00
2018-07-08T09:58:06.673Z,1.93
2018-07-08T09:59:10.333Z,1.90
2018-07-08T10:00:13.991Z,2.13
2018-07-08T10:01:17.594Z,2.17
2018-07-08T10:02:21.258Z,2.13
2018-07-08T10:03:24.933Z,2.10
2018-07-08T10:04:28.685Z,2.07
2018-07-08T10:05:32.379Z,1.83
2018-07-08T10:06:36.046Z,2.20
2018-07-08T10:07:39.693Z,2.50
2018-07-08T10:08:43.335Z,2.50
2018-07-08T10:09:47.043Z,2.30
2018-07-08T10:10:50.748Z,2.67
2018-07-08T10:11:54.407Z,3.07
2018-07-08T10:12:58.015Z,2.90
2018-07-08T10:14:01.840Z,2.33
2018-07-08T10:15:05.481Z,2.63
2018-07-08T10:16:09.162Z,2.40
2018-07-08T10:17:12.776Z,2.50
2018-07-08T10:18:16.528Z,2.50
2018-07-08T10:19:21.136Z,2.87
2018-07-08T10:20:24.820Z,2.80
2018-07-08T10:21:28.179Z,2.60
2018-07-08T10:22:31.838Z,3.07
2018-07-08T10:23:35.532Z,2.70
2018-07-08T10:24:39.291Z,3.63
2018-07-08T10:25:43.303Z,3.10
2018-07-08T10:26:55.785Z,2.93
2018-07-08T10:28:09.770Z,3.00
2018-07-08T10:29:16.452Z,2.43
2018-07-08T10:30:20.284Z,3.03
2018-07-08T10:31:28.955Z,2.80
2018-07-08T10:32:32.688Z,3.27
2018-07-08T10:34:07.694Z,2.63
2018-07-08T10:35:21.106Z,2.83
2018-07-08T10:36:24.859Z,2.70
2018-07-08T10:37:28.472Z,2.53
2018-07-08T10:38:32.581Z,2.47
2018-07-08T10:39:36.289Z,2.20
2018-07-08T10:40:40.049Z,2.43
2018-07-08T10:41:43.794Z,2.50
2018-07-08T10:42:47.392Z,2.30
2018-07-08T10:43:50.808Z,2.73
2018-07-08T10:44:54.396Z,3.20
2018-07-08T10:45:58.086Z,2.60
2018-07-08T10:47:01.728Z,3.20
2018-07-08T10:48:05.441Z,2.50
2018-07-08T10:49:09.427Z,2.73
2018-07-08T10:50:13.128Z,2.50
2018-07-08T10:51:16.776Z,2.80
2018-07-08T10:52:20.630Z,3.27
2018-07-08T10:53:24.263Z,2.77
2018-07-08T10:54:28.071Z,2.80
2018-07-08T10:55:31.772Z,2.80
2018-07-08T10:56:35.486Z,2.67
2018-07-08T10:57:39.156Z,2.60
2018-07-08T10:58:42.829Z,2.80
2018-07-08T10:59:46.534Z,2.80
2018-07-08T11:00:50.148Z,2.60
2018-07-08T11:01:53.783Z,2.70
2018-07-08T11:02:57.429Z,2.80
2018-07-08T11:04:01.533Z,2.70
2018-07-08T11:05:05.694Z,2.77
2018-07-08T11:06:09.429Z,3.00
2018-07-08T11:07:13.086Z,3.10
2018-07-08T11:08:16.779Z,2.80
2018-07-08T11:09:20.435Z,3.30
2018-07-08T11:10:23.713Z,2.80
2018-07-08T11:11:27.436Z,2.70
2018-07-08T11:12:31.076Z,2.43
2018-07-08T11:13:34.721Z,2.20
2018-07-08T11:14:38.412Z,3.17
2018-07-08T11:15:42.089Z,2.97
2018-07-08T11:16:45.770Z,2.63
2018-07-08T11:17:49.758Z,3.20
2018-07-08T11:18:53.425Z,2.90
2018-07-08T11:19:57.127Z,2.80
2018-07-08T11:21:00.907Z,2.93
2018-07-08T11:22:04.608Z,3.07
2018-07-08T11:23:08.264Z,3.03
2018-07-08T11:24:11.922Z,3.03
2018-07-08T11:25:15.628Z,2.90
2018-07-08T11:26:19.450Z,3.57
2018-07-08T11:27:23.186Z,3.40
2018-07-08T11:28:26.796Z,2.87
2018-07-08T11:29:30.477Z,3.30
2018-07-08T11:30:34.186Z,3.07
2018-07-08T11:31:37.525Z,3.13
2018-07-08T11:32:41.283Z,2.57
2018-07-08T11:33:44.591Z,3.00
2018-07-08T11:34:48.328Z,2.80
2018-07-08T11:35:51.945Z,3.03
2018-07-08T11:36:55.580Z,2.90
2018-07-08T11:37:59.255Z,2.40
2018-07-08T11:39:03.226Z,3.00
2018-07-08T11:40:07.163Z,2.93
2018-07-08T11:41:10.798Z,2.57
2018-07-08T11:42:14.396Z,3.17
2018-07-08T11:43:18.054Z,2.70
2018-07-08T11:44:21.980Z,3.20
2018-07-08T11:45:25.703Z,2.70
2018-07-08T11:46:29.335Z,3.00
2018-07-08T11:47:33.009Z,3.07
2018-07-08T11:48:36.708Z,2.63
2018-07-08T11:49:40.335Z,3.43
2018-07-08T11:50:43.993Z,2.70
2018-07-08T11:51:47.680Z,2.53
2018-07-08T11:52:51.316Z,3.00
2018-07-08T11:53:55.021Z,3.13
2018-07-08T11:54:58.666Z,3.03
2018-07-08T11:56:02.307Z,2.77
2018-07-08T11:57:05.979Z,3.07
2018-07-08T11:58:09.667Z,3.17
2018-07-08T11:59:13.466Z,3.63
2018-07-08T12:00:17.208Z,2.80
2018-07-08T12:01:20.911Z,2.50
2018-07-08T12:02:24.669Z,3.30
2018-07-08T12:03:28.297Z,2.53
2018-07-08T12:04:32.089Z,2.60
2018-07-08T12:05:35.731Z,2.77
2018-07-08T12:06:39.437Z,2.77
2018-07-08T12:07:43.203Z,2.60
2018-07-08T12:08:46.873Z,2.90
2018-07-08T12:09:50.503Z,2.97
2018-07-08T12:10:54.201Z,3.13
2018-07-08T12:11:57.872Z,2.80
2018-07-08T12:13:01.471Z,2.70
2018-07-08T12:14:05.122Z,2.30
2018-07-08T12:15:08.908Z,2.67
2018-07-08T12:16:12.210Z,2.40
2018-07-08T12:17:15.962Z,2.90
2018-07-08T12:18:19.659Z,2.80
2018-07-08T12:19:23.358Z,2.73
2018-07-08T12:20:27.221Z,2.50
2018-07-08T12:21:31.366Z,2.27
2018-07-08T12:22:35.014Z,2.80
2018-07-08T12:23:40.490Z,2.80
2018-07-08T12:24:44.490Z,2.70
2018-07-08T12:25:48.235Z,2.90
2018-07-08T12:26:52.084Z,2.80
2018-07-08T12:27:56.215Z,2.40
2018-07-08T12:28:59.833Z,2.30
2018-07-08T12:30:03.518Z,2.10
2018-07-08T12:31:07.468Z,2.53
2018-07-08T12:32:11.116Z,2.67
2018-07-08T12:33:14.800Z,2.40
2018-07-08T12:34:18.388Z,2.63
2018-07-08T12:35:22.034Z,2.33
2018-07-08T12:36:25.700Z,2.80
2018-07-08T12:37:29.286Z,2.57
2018-07-08T12:38:32.955Z,1.93
2018-07-08T12:39:36.727Z,2.40
2018-07-08T12:40:40.301Z,1.93
2018-07-08T12:41:44.024Z,2.20
2018-07-08T12:42:47.750Z,2.37
2018-07-08T12:43:51.772Z,1.93
2018-07-08T12:44:55.533Z,2.23
2018-07-08T12:45:59.263Z,2.13
2018-07-08T12:47:03.035Z,2.13
2018-07-08T12:48:06.795Z,2.63
2018-07-08T12:49:10.475Z,2.30
2018-07-08T12:50:14.182Z,2.10
2018-07-08T12:51:18.662Z,2.37
2018-07-08T12:52:22.250Z,2.23
2018-07-08T12:53:25.958Z,2.37
2018-07-08T12:54:29.677Z,2.37
2018-07-08T12:55:33.399Z,2.37
2018-07-08T12:56:37.081Z,2.40
2018-07-08T12:57:40.819Z,2.37
2018-07-08T12:58:44.535Z,2.27
2018-07-08T12:59:48.252Z,2.30
2018-07-08T13:00:51.909Z,2.17
2018-07-08T13:01:55.547Z,2.20
2018-07-08T13:02:59.365Z,2.10
2018-07-08T13:04:02.987Z,2.00
2018-07-08T13:05:07.107Z,2.20
2018-07-08T13:06:10.859Z,2.10
2018-07-08T13:07:14.573Z,2.40
2018-07-08T13:08:18.292Z,2.60
2018-07-08T13:09:21.932Z,2.60
2018-07-08T13:10:25.716Z,2.90
2018-07-08T13:11:29.327Z,2.33
2018-07-08T13:12:32.990Z,2.60
2018-07-08T13:13:36.610Z,2.20
2018-07-08T13:14:40.296Z,2.63
2018-07-08T13:15:43.932Z,2.20
2018-07-08T13:16:47.639Z,1.80
2018-07-08T13:17:51.300Z,2.43
2018-07-08T13:18:54.956Z,2.50
2018-07-08T13:19:58.737Z,1.90
2018-07-08T13:21:02.432Z,2.00
2018-07-08T13:22:06.049Z,2.10
2018-07-08T13:23:09.698Z,2.13
2018-07-08T13:24:13.420Z,2.20
2018-07-08T13:25:17.027Z,2.27
2018-07-08T13:26:20.788Z,2.10
2018-07-08T13:27:24.474Z,2.00
2018-07-08T13:28:28.604Z,2.10
2018-07-08T13:29:32.284Z,2.10
2018-07-08T13:30:35.972Z,2.43
2018-07-08T13:31:39.629Z,2.30
2018-07-08T13:32:43.427Z,2.20
2018-07-08T13:33:47.067Z,2.53
2018-07-08T13:34:50.747Z,2.20
2018-07-08T13:35:54.431Z,2.10
2018-07-08T13:36:58.207Z,2.63
2018-07-08T13:38:01.955Z,2.30
2018-07-08T13:39:07.440Z,2.30
2018-07-08T13:40:11.210Z,2.07
2018-07-08T13:41:14.885Z,2.47
2018-07-08T13:42:18.489Z,2.30
2018-07-08T13:43:22.136Z,2.90
2018-07-08T13:44:25.817Z,2.30
2018-07-08T13:45:29.571Z,2.03
2018-07-08T13:46:33.215Z,2.03
2018-07-08T13:47:37.003Z,2.47
2018-07-08T13:48:40.781Z,2.00
2018-07-08T13:49:44.500Z,1.80
2018-07-08T13:50:48.192Z,2.30
2018-07-08T13:51:51.808Z,1.90
2018-07-08T13:52:55.466Z,2.13
2018-07-08T13:53:59.263Z,2.13
2018-07-08T13:55:02.989Z,2.10
2018-07-08T13:56:06.700Z,2.10
2018-07-08T13:57:10.321Z,2.00
2018-07-08T13:58:13.927Z,2.43
2018-07-08T13:59:17.588Z,2.20
2018-07-08T14:00:21.287Z,1.90
2018-07-08T14:01:25.034Z,2.10
2018-07-08T14:02:28.757Z,2.23
2018-07-08T14:03:32.576Z,2.70
2018-07-08T14:04:36.257Z,2.50
2018-07-08T14:05:39.981Z,2.00
2018-07-08T14:06:43.704Z,1.80
2018-07-08T14:07:47.398Z,1.93
2018-07-08T14:08:51.196Z,1.77
2018-07-08T14:09:54.878Z,1.83
2018-07-08T14:10:58.634Z,2.53